• Join FlightAware (Why Join?)
  • Login
  • US Flag 
10:39PM EDT


 

Airport Tracker/Info


-or-


 

Live Flight TrackerFlight Track Log ✈ JZA8145 ✈ 17-May-2013 ✈ CYEG - CYYC

Flight Track Log - Related Links

Times and Time Zones

All times are in EDT time to prevent confusion due to time zone crossing. See the JZA8145 flight status page for this flight to view local times or setup timezone preferences in your user account.

Time Position Orientation Groundspeed Altitude Reporting Facility
EDT Latitude Longitude Course Direction KTS MPH feet Rate Location/Type
03:03PM 53.3333 -113.5667 169° South 160 184 3,700  Level Edmonton Center
03:04PM 53.3333 -113.5000 90° East 180 207 4,800 1,320 Climbing Edmonton Center
03:05PM 53.3333 -113.4167 90° East 160 184 6,400 1,500 Climbing Edmonton Center
03:06PM 53.1191 -113.8410 166° South  Level FlightAware Approximate
03:06PM 53.3000 -113.4167 180° South 150 173 7,900  Level Edmonton Center
03:07PM 53.0512 -113.8115 169° South  Level FlightAware Approximate
03:07PM 53.2500 -113.4667 211° Southwest 150 173 9,500  Level Edmonton Center
03:08PM 52.9824 -113.7886 169° South  Level FlightAware Approximate
03:08PM 53.2333 -113.5167 241° Southwest 160 184 10,800  Level Edmonton Center
03:09PM 53.2000 -113.5667 222° Southwest 160 184 12,300 1,440 Climbing Edmonton Center
03:10PM 53.1667 -113.6167 222° Southwest 160 184 13,700 1,320 Climbing Edmonton Center
03:11PM 53.1000 -113.6333 189° South 170 196 15,000 1,200 Climbing Edmonton Center
03:12PM 53.0667 -113.6500 197° South 190 219 16,100 960 Climbing Edmonton Center
03:13PM 53.0167 -113.6333 169° South 180 207 17,000 1,020 Climbing Edmonton Center
03:14PM 52.9500 -113.6167 171° South 220 253 18,200 960 Climbing Edmonton Center
03:15PM 52.9000 -113.6167 180° South 190 219 19,000 360 Climbing Edmonton Center
03:16PM 52.8333 -113.6333 189° South 240 276 19,000  Level Edmonton Center
03:17PM 52.7667 -113.6167 171° South 260 299 19,000  Level Edmonton Center
03:18PM 52.7000 -113.6333 189° South 260 299 19,000  Level Edmonton Center
03:19PM 52.6167 -113.6167 173° South 270 311 19,000  Level Edmonton Center
03:20PM 52.5500 -113.6167 180° South 270 311 19,000 -360 Level Edmonton Center
03:21PM 52.4667 -113.6333 187° South 280 322 18,300 -900 Descending Edmonton Center
03:22PM 52.3833 -113.6167 173° South 290 334 17,200 -1,020 Descending Edmonton Center
03:23PM 52.2833 -113.6333 186° South 300 345 16,300 -900 Descending Edmonton Center
03:24PM 52.2000 -113.6167 173° South 290 334 15,400 -720 Descending Edmonton Center
03:25PM 52.1333 -113.6167 180° South 280 322 14,900 -660 Descending Edmonton Center
03:26PM 52.0500 -113.6000 173° South 280 322 14,100 -900 Descending Edmonton Center
03:27PM 51.9833 -113.6167 189° South 280 322 13,100 -1,020 Descending Edmonton Center
03:28PM 51.9000 -113.6000 173° South 280 322 12,100 -1,080 Descending Edmonton Center
03:29PM 51.8167 -113.6167 187° South 270 311 11,000 -600 Descending Edmonton Center
03:30PM 51.7500 -113.6333 189° South 260 299 11,000 -300 Level Edmonton Center
03:31PM 51.6833 -113.6667 197° South 260 299 10,400 -1,200 Descending Edmonton Center
03:32PM 51.6000 -113.6833 187° South 270 311 8,700 -1,200 Descending Edmonton Center
03:33PM 51.5333 -113.7000 189° South 240 276 8,000 -360 Descending Edmonton Center
03:34PM 51.4667 -113.7000 180° South 250 288 8,000  Level Edmonton Center
03:35PM 51.4000 -113.7167 189° South 250 288 8,100 -240 Climbing Edmonton Center
03:36PM 51.3333 -113.7333 189° South 250 288 7,600 -780 Descending Edmonton Center
03:37PM 51.2667 -113.7500 189° South 260 299 6,600 -840 Descending Edmonton Center
03:38PM 51.2000 -113.7667 189° South 250 288 6,000 -300 Descending Edmonton Center
03:39PM 51.1167 -113.7667 180° South 230 265 6,000 -480 Level Edmonton Center
03:40PM 51.0500 -113.7500 171° South 220 253 5,100 -540 Descending Edmonton Center
03:41PM 51.0167 -113.8333 238° Southwest 220 253 5,000 -60 Descending Edmonton Center
03:42PM 51.0500 -113.9167 302° West 190 219 5,000 -300 Level Edmonton Center
03:43PM 51.0500 -113.9667 270° West 150 173 4,500 -540 Descending Edmonton Center